Time;durP1;ratioP1;P1;durP2;ratioP2;P2;SDS_P1;SDS_P2;PMS_P1;PMS_P2;Temp;Humidity;BMP_temperature;BMP_pressure;BME280_temperature;BME280_humidity;BME280_pressure;Samples;Min_cycle;Max_cycle;Signal;HPM_P1;HPM_P2
2022/06/13 00:08:44;;;;;;;3.03;2.10;;;;;;;;;;6306757;22;20178;-89
2022/06/13 00:11:24;;;;;;;2.50;2.00;;;;;;;;;;6304816;22;20174;-89
2022/06/13 00:55:47;;;;;;;1.95;1.85;;;;;;;;;;6315334;22;20186;-87
2022/06/13 00:58:15;;;;;;;2.13;1.92;;;;;;;;;;6306186;22;20225;-87
2022/06/13 01:00:43;;;;;;;1.80;1.70;;;;;;;;;;6306903;22;20171;-87
2022/06/13 01:03:11;;;;;;;1.90;1.73;;;;;;;;;;6306607;22;20231;-86
2022/06/13 01:05:41;;;;;;;2.30;1.83;;;;;;;;;;6306459;22;20198;-87
2022/06/13 01:08:10;;;;;;;2.88;1.77;;;;;;;;;;6306395;22;20172;-87
2022/06/13 01:13:33;;;;;;;1.75;1.65;;;;;;;;;;6306346;22;20238;-87
2022/06/13 01:16:09;;;;;;;2.22;2.03;;;;;;;;;;6306849;22;20266;-85
2022/06/13 01:18:46;;;;;;;2.85;1.80;;;;;;;;;;6306929;22;20152;-88
2022/06/13 01:21:17;;;;;;;2.17;1.90;;;;;;;;;;6307985;22;20167;-86
2022/06/13 01:23:55;;;;;;;1.70;1.60;;;;;;;;;;6310828;22;20246;-86
2022/06/13 01:26:44;;;;;;;2.40;1.83;;;;;;;;;;6310319;22;20190;-88
2022/06/13 01:29:29;;;;;;;1.77;1.67;;;;;;;;;;6313805;22;20171;-87
2022/06/13 01:32:03;;;;;;;2.05;1.60;;;;;;;;;;6317218;22;20240;-87
2022/06/13 01:34:35;;;;;;;2.30;1.80;;;;;;;;;;6316045;22;20178;-87
2022/06/13 01:37:06;;;;;;;2.70;1.80;;;;;;;;;;6315966;22;20244;-88
2022/06/13 01:39:37;;;;;;;1.83;1.73;;;;;;;;;;6307618;22;20175;-87
2022/06/13 01:42:09;;;;;;;2.47;1.63;;;;;;;;;;6306389;22;20167;-88
2022/06/13 01:44:48;;;;;;;1.95;1.60;;;;;;;;;;6306761;22;20164;-88
2022/06/13 01:47:21;;;;;;;2.03;1.83;;;;;;;;;;6306081;22;20191;-88
2022/06/13 01:49:53;;;;;;;1.77;1.67;;;;;;;;;;6306043;22;20166;-87
2022/06/13 01:52:24;;;;;;;2.35;1.75;;;;;;;;;;6306322;22;20222;-87
2022/06/13 01:54:53;;;;;;;1.60;1.50;;;;;;;;;;6306668;22;20164;-87
2022/06/13 01:57:24;;;;;;;1.75;1.60;;;;;;;;;;6329119;22;20198;-88
2022/06/13 01:59:58;;;;;;;1.77;1.67;;;;;;;;;;6337799;22;20193;-88
2022/06/13 02:02:31;;;;;;;1.83;1.70;;;;;;;;;;6337075;22;20170;-87
2022/06/13 02:05:01;;;;;;;1.75;1.65;;;;;;;;;;6337398;22;20166;-87
2022/06/13 02:07:29;;;;;;;2.53;1.90;;;;;;;;;;6336957;22;20247;-86
2022/06/13 02:10:03;;;;;;;1.88;1.77;;;;;;;;;;6337659;22;20171;-87
2022/06/13 02:12:36;;;;;;;1.85;1.75;;;;;;;;;;6337342;22;20182;-87
2022/06/13 02:15:07;;;;;;;2.15;1.95;;;;;;;;;;6337274;22;20246;-88
2022/06/13 02:17:39;;;;;;;1.90;1.70;;;;;;;;;;6337224;22;20240;-88
2022/06/13 02:20:08;;;;;;;1.60;1.50;;;;;;;;;;6337540;22;20173;-88
2022/06/13 02:22:41;;;;;;;2.00;1.90;;;;;;;;;;6337464;22;20167;-87
2022/06/13 02:25:14;;;;;;;1.80;1.70;;;;;;;;;;6337856;22;20166;-87
2022/06/13 02:27:44;;;;;;;2.10;1.90;;;;;;;;;;6336521;22;20197;-88
2022/06/13 02:30:21;;;;;;;1.80;1.70;;;;;;;;;;6337582;22;20511;-88
2022/06/13 02:32:52;;;;;;;1.70;1.60;;;;;;;;;;6336952;22;20186;-87
2022/06/13 02:35:23;;;;;;;1.70;1.60;;;;;;;;;;6337508;22;20170;-88
2022/06/13 02:37:58;;;;;;;1.85;1.65;;;;;;;;;;6337528;22;20187;-87
2022/06/13 02:40:28;;;;;;;1.77;1.67;;;;;;;;;;6339136;22;20211;-87
2022/06/13 02:43:00;;;;;;;1.60;1.50;;;;;;;;;;6339563;22;20166;-88
2022/06/13 02:45:33;;;;;;;1.80;1.70;;;;;;;;;;6339455;22;20162;-87
2022/06/13 02:48:06;;;;;;;1.60;1.50;;;;;;;;;;6339606;22;20166;-87
2022/06/13 02:50:40;;;;;;;1.70;1.60;;;;;;;;;;6339489;22;20170;-87
2022/06/13 02:53:10;;;;;;;1.60;1.50;;;;;;;;;;6339605;22;20183;-87
2022/06/13 02:55:44;;;;;;;1.63;1.52;;;;;;;;;;6338859;22;20173;-87
2022/06/13 02:58:18;;;;;;;1.60;1.50;;;;;;;;;;6339200;22;20227;-88
2022/06/13 03:00:52;;;;;;;2.00;1.58;;;;;;;;;;6338772;22;20166;-87
2022/06/13 03:03:24;;;;;;;1.80;1.70;;;;;;;;;;6339027;22;20158;-87
2022/06/13 03:06:02;;;;;;;1.85;1.70;;;;;;;;;;6339037;22;20191;-88
2022/06/13 03:08:37;;;;;;;1.70;1.50;;;;;;;;;;6339521;22;20226;-88
2022/06/13 03:11:21;;;;;;;1.67;1.58;;;;;;;;;;6338624;22;20215;-88
2022/06/13 03:13:54;;;;;;;1.55;1.45;;;;;;;;;;6339498;22;20186;-87
2022/06/13 03:16:25;;;;;;;1.60;1.50;;;;;;;;;;6338949;22;20574;-88
2022/06/13 03:18:57;;;;;;;1.65;1.55;;;;;;;;;;6339369;22;20163;-88
2022/06/13 03:21:28;;;;;;;1.70;1.60;;;;;;;;;;6338584;22;20177;-87
2022/06/13 03:23:58;;;;;;;1.58;1.48;;;;;;;;;;6339288;22;20159;-88
2022/06/13 03:26:31;;;;;;;1.83;1.73;;;;;;;;;;6338651;22;20194;-87
2022/06/13 03:29:14;;;;;;;1.85;1.60;;;;;;;;;;6338026;22;20171;-88
2022/06/13 03:32:03;;;;;;;1.60;1.50;;;;;;;;;;6338704;22;20214;-87
2022/06/13 03:34:34;;;;;;;1.60;1.48;;;;;;;;;;6339020;22;20169;-87
2022/06/13 03:37:06;;;;;;;1.70;1.60;;;;;;;;;;6338090;22;20240;-87
2022/06/13 03:39:36;;;;;;;1.60;1.50;;;;;;;;;;6339406;22;20178;-87
2022/06/13 03:42:12;;;;;;;1.70;1.60;;;;;;;;;;6338322;22;20216;-87
2022/06/13 03:44:42;;;;;;;1.90;1.70;;;;;;;;;;6339063;22;20166;-88
2022/06/13 03:47:16;;;;;;;1.50;1.30;;;;;;;;;;6338237;22;20518;-87
2022/06/13 03:49:50;;;;;;;1.67;1.58;;;;;;;;;;6338876;22;20163;-87
2022/06/13 03:52:18;;;;;;;2.35;1.75;;;;;;;;;;6338544;22;20180;-88
2022/06/13 03:54:48;;;;;;;1.67;1.58;;;;;;;;;;6338935;22;20171;-88
2022/06/13 03:57:24;;;;;;;2.95;1.80;;;;;;;;;;6338234;22;20233;-87
2022/06/13 03:59:56;;;;;;;1.60;1.50;;;;;;;;;;6338699;22;20217;-87
2022/06/13 04:02:26;;;;;;;1.83;1.58;;;;;;;;;;6337328;22;20561;-87
2022/06/13 04:04:55;;;;;;;1.60;1.50;;;;;;;;;;6337755;22;20171;-87
2022/06/13 04:07:31;;;;;;;1.63;1.52;;;;;;;;;;6337018;22;20190;-88
2022/06/13 04:10:02;;;;;;;1.60;1.48;;;;;;;;;;6337282;22;20170;-87
2022/06/13 04:12:47;;;;;;;1.45;1.35;;;;;;;;;;6337892;22;20179;-87
2022/06/13 04:15:26;;;;;;;1.33;1.23;;;;;;;;;;6317498;22;20190;-88
2022/06/13 04:18:01;;;;;;;2.00;1.48;;;;;;;;;;6337343;22;20198;-88
2022/06/13 04:20:38;;;;;;;1.58;1.48;;;;;;;;;;6338071;22;20540;-88
2022/06/13 04:23:16;;;;;;;1.92;1.73;;;;;;;;;;6338139;22;20166;-87
2022/06/13 04:25:48;;;;;;;1.70;1.52;;;;;;;;;;6337670;22;20163;-87
2022/06/13 04:28:28;;;;;;;1.73;1.60;;;;;;;;;;6337952;22;20512;-88
2022/06/13 04:30:59;;;;;;;2.15;1.45;;;;;;;;;;6337963;22;20170;-88
2022/06/13 04:33:31;;;;;;;1.50;1.40;;;;;;;;;;6337905;22;20255;-87
2022/06/13 04:36:01;;;;;;;2.05;1.50;;;;;;;;;;6337793;22;20188;-87
2022/06/13 04:38:30;;;;;;;1.65;1.55;;;;;;;;;;6337157;22;20189;-87
2022/06/13 04:41:00;;;;;;;1.80;1.52;;;;;;;;;;6337871;22;20178;-87
2022/06/13 04:43:33;;;;;;;2.08;1.60;;;;;;;;;;6338315;22;20167;-87
2022/06/13 04:46:02;;;;;;;1.65;1.55;;;;;;;;;;6336110;22;20677;-88
2022/06/13 04:48:30;;;;;;;1.98;1.50;;;;;;;;;;6338175;22;20171;-89
2022/06/13 04:50:58;;;;;;;2.00;1.50;;;;;;;;;;6338130;22;20174;-88
2022/06/13 04:53:29;;;;;;;1.88;1.52;;;;;;;;;;6338339;22;20191;-87
2022/06/13 04:55:59;;;;;;;3.33;1.40;;;;;;;;;;6338104;22;20268;-87
2022/06/13 04:58:40;;;;;;;2.97;1.45;;;;;;;;;;6338985;22;20163;-87
2022/06/13 05:01:08;;;;;;;1.60;1.50;;;;;;;;;;6338396;22;20223;-85
2022/06/13 05:07:05;;;;;;;3.67;1.80;;;;;;;;;;6329372;22;20198;-90
2022/06/13 05:19:15;;;;;;;3.88;1.52;;;;;;;;;;6337749;22;20165;-89
2022/06/13 05:21:55;;;;;;;3.28;1.80;;;;;;;;;;6339648;22;20187;-89
2022/06/13 05:24:49;;;;;;;3.45;1.67;;;;;;;;;;6338777;22;20162;-88
2022/06/13 05:30:41;;;;;;;1.85;1.60;;;;;;;;;;6333592;22;20175;-88
2022/06/13 05:33:16;;;;;;;2.92;2.00;;;;;;;;;;6338302;22;20217;-88
2022/06/13 05:35:52;;;;;;;2.00;1.58;;;;;;;;;;6337889;22;20242;-87
2022/06/13 05:41:05;;;;;;;5.43;1.88;;;;;;;;;;6334093;22;20218;-87
2022/06/13 05:43:42;;;;;;;2.75;1.73;;;;;;;;;;6337718;22;20216;-87
2022/06/13 05:46:19;;;;;;;5.45;2.00;;;;;;;;;;6338001;22;20680;-87
2022/06/13 05:48:59;;;;;;;3.22;1.92;;;;;;;;;;6338374;22;20174;-88
2022/06/13 05:51:38;;;;;;;2.28;1.55;;;;;;;;;;6338801;22;20166;-87
2022/06/13 05:54:09;;;;;;;4.78;1.90;;;;;;;;;;6337452;22;20178;-87
2022/06/13 05:57:07;;;;;;;3.08;2.00;;;;;;;;;;6336775;22;20725;-87
2022/06/13 06:02:42;;;;;;;2.08;1.80;;;;;;;;;;6335611;22;20182;-88
2022/06/13 06:05:11;;;;;;;3.63;2.00;;;;;;;;;;6335603;22;20184;-88
2022/06/13 06:07:39;;;;;;;1.75;1.60;;;;;;;;;;6336204;22;20191;-87
2022/06/13 06:10:14;;;;;;;3.90;2.00;;;;;;;;;;6338018;22;20221;-88
2022/06/13 06:12:51;;;;;;;2.35;1.65;;;;;;;;;;6337251;22;20158;-88
2022/06/13 06:15:22;;;;;;;2.20;1.48;;;;;;;;;;6338155;22;20170;-87
2022/06/13 06:17:52;;;;;;;3.97;1.90;;;;;;;;;;6337802;22;20224;-86
2022/06/13 06:20:22;;;;;;;4.63;1.80;;;;;;;;;;6337502;22;20162;-87
2022/06/13 06:22:49;;;;;;;4.40;1.80;;;;;;;;;;6337740;22;20642;-87
2022/06/13 06:25:17;;;;;;;4.88;1.83;;;;;;;;;;6337656;22;20171;-88
2022/06/13 06:27:44;;;;;;;3.35;1.90;;;;;;;;;;6337504;22;20191;-86
2022/06/13 06:30:15;;;;;;;6.00;2.20;;;;;;;;;;6337233;22;20177;-87
2022/06/13 06:32:42;;;;;;;3.42;2.17;;;;;;;;;;6337742;22;20220;-87
2022/06/13 06:35:10;;;;;;;5.45;2.20;;;;;;;;;;6337240;22;20217;-86
2022/06/13 06:37:40;;;;;;;2.88;2.15;;;;;;;;;;6338696;22;20198;-86
2022/06/13 06:40:08;;;;;;;4.35;2.10;;;;;;;;;;6337162;22;20159;-85
2022/06/13 06:42:36;;;;;;;4.47;2.20;;;;;;;;;;6336792;22;20172;-89
2022/06/13 06:45:07;;;;;;;3.47;1.92;;;;;;;;;;6337750;22;20242;-89
2022/06/13 06:47:35;;;;;;;3.85;2.33;;;;;;;;;;6337259;22;20195;-86
2022/06/13 06:50:03;;;;;;;3.78;1.95;;;;;;;;;;6337280;22;20634;-86
2022/06/13 06:52:30;;;;;;;3.53;2.17;;;;;;;;;;6336904;22;20192;-87
2022/06/13 07:00:28;;;;;;;3.88;2.22;;;;;;;;;;6337622;22;20150;-84
2022/06/13 07:03:02;;;;;;;5.15;1.98;;;;;;;;;;6313329;22;20219;-89
2022/06/13 07:05:30;;;;;;;4.60;1.90;;;;;;;;;;6305295;22;20171;-86
2022/06/13 07:08:01;;;;;;;3.70;1.80;;;;;;;;;;6306191;22;20171;-89
2022/06/13 07:10:33;;;;;;;4.38;2.00;;;;;;;;;;6305780;22;20194;-88
2022/06/13 07:13:06;;;;;;;4.75;2.15;;;;;;;;;;6305493;22;20191;-89
2022/06/13 07:15:33;;;;;;;5.00;2.30;;;;;;;;;;6305368;22;20167;-90
2022/06/13 07:18:02;;;;;;;4.03;2.17;;;;;;;;;;6305472;22;20198;-87
2022/06/13 07:20:35;;;;;;;3.85;2.20;;;;;;;;;;6305552;22;20198;-88
2022/06/13 07:23:02;;;;;;;2.97;1.95;;;;;;;;;;6305467;22;20214;-90
2022/06/13 07:25:46;;;;;;;3.67;1.77;;;;;;;;;;6306943;22;20198;-88
2022/06/13 07:28:16;;;;;;;4.70;2.10;;;;;;;;;;6306222;22;20173;-90
2022/06/13 07:30:47;;;;;;;3.72;2.30;;;;;;;;;;6309022;22;20171;-89
2022/06/13 07:33:15;;;;;;;2.85;2.00;;;;;;;;;;6306934;22;20222;-89
2022/06/13 07:35:45;;;;;;;4.90;2.20;;;;;;;;;;6307535;22;20217;-88
2022/06/13 07:38:24;;;;;;;4.00;2.47;;;;;;;;;;6307317;22;20203;-89
2022/06/13 07:41:06;;;;;;;5.20;2.25;;;;;;;;;;6307036;22;20190;-89
2022/06/13 07:43:37;;;;;;;3.60;2.05;;;;;;;;;;6307364;22;20191;-88
2022/06/13 07:46:06;;;;;;;3.35;2.17;;;;;;;;;;6307585;22;20171;-87
2022/06/13 07:48:34;;;;;;;3.92;1.90;;;;;;;;;;6306811;22;20232;-88
2022/06/13 07:51:02;;;;;;;5.13;2.33;;;;;;;;;;6306136;22;20179;-87
2022/06/13 07:53:31;;;;;;;3.05;1.90;;;;;;;;;;6307186;22;20191;-86
2022/06/13 07:56:03;;;;;;;3.42;2.25;;;;;;;;;;6306596;22;20183;-85
2022/06/13 07:58:32;;;;;;;2.90;1.88;;;;;;;;;;6307606;22;20173;-86
2022/06/13 08:01:09;;;;;;;3.75;2.00;;;;;;;;;;6307487;22;20225;-88
2022/06/13 08:03:36;;;;;;;3.05;1.85;;;;;;;;;;6336437;22;20194;-87
2022/06/13 08:06:04;;;;;;;2.50;1.60;;;;;;;;;;6338585;22;20166;-86
2022/06/13 08:14:13;;;;;;;3.45;1.55;;;;;;;;;;6330105;22;20187;-91
2022/06/13 08:16:58;;;;;;;2.60;1.90;;;;;;;;;;6338644;22;20178;-89
2022/06/13 08:19:41;;;;;;;3.95;2.00;;;;;;;;;;6339049;22;20167;-91
2022/06/13 08:22:15;;;;;;;1.83;1.55;;;;;;;;;;6338554;22;20194;-89
2022/06/13 08:24:49;;;;;;;3.20;1.75;;;;;;;;;;6338588;22;20173;-90
2022/06/13 08:27:22;;;;;;;2.00;1.80;;;;;;;;;;6338056;22;20162;-89
2022/06/13 08:33:05;;;;;;;;;;;;;;;;;;;;;
2022/06/13 08:42:00;;;;;;;3.17;1.77;;;;;;;;;;6338578;22;20180;-89
2022/06/13 08:44:58;;;;;;;2.33;1.80;;;;;;;;;;6339202;22;20193;-88
2022/06/13 08:50:53;;;;;;;3.35;1.90;;;;;;;;;;6162244;23;20224;-88
2022/06/13 08:54:03;;;;;;;;;;;;;;;;;;;;;
2022/06/13 09:06:01;;;;;;;2.03;1.83;;;;;;;;;;6212117;23;20180;-87
2022/06/13 09:15:10;;;;;;;1.92;1.42;;;;;;;;;;6205178;23;20200;-87
2022/06/13 09:18:07;;;;;;;3.00;1.50;;;;;;;;;;6210805;23;20178;-88
2022/06/13 09:24:05;;;;;;;2.65;1.80;;;;;;;;;;6085788;23;20222;-88
2022/06/13 09:29:53;;;;;;;2.70;1.58;;;;;;;;;;6097786;23;20186;-86
2022/06/13 09:35:47;;;;;;;1.95;1.42;;;;;;;;;;6110206;23;20199;-86
2022/06/13 09:38:29;;;;;;;2.88;1.83;;;;;;;;;;6122120;23;20202;-86
2022/06/13 09:41:18;;;;;;;2.65;1.70;;;;;;;;;;6122160;23;20195;-85
2022/06/13 09:43:59;;;;;;;3.38;1.95;;;;;;;;;;6211702;23;20526;-87
2022/06/13 09:49:49;;;;;;;3.50;1.67;;;;;;;;;;6075952;23;20633;-88
2022/06/13 09:52:49;;;;;;;2.75;1.52;;;;;;;;;;6211858;23;20193;-88
2022/06/13 09:55:53;;;;;;;3.20;1.80;;;;;;;;;;6063201;23;20196;-86
2022/06/13 10:02:18;;;;;;;3.03;1.67;;;;;;;;;;6210633;23;20189;-89
2022/06/13 10:11:48;;;;;;;4.90;4.22;;;;;;;;;;6272325;22;20534;-88
2022/06/13 10:20:43;;;;;;;32.15;29.45;;;;;;;;;;6198033;23;20188;-89
2022/06/13 10:23:22;;;;;;;25.10;22.95;;;;;;;;;;6210968;23;20224;-91
2022/06/13 10:25:55;;;;;;;23.63;21.63;;;;;;;;;;6210403;23;20177;-89
2022/06/13 10:28:33;;;;;;;20.52;18.80;;;;;;;;;;6210973;23;20229;-91
2022/06/13 10:31:09;;;;;;;19.58;17.88;;;;;;;;;;6210723;23;20645;-90
2022/06/13 10:36:36;;;;;;;12.98;11.88;;;;;;;;;;6207285;23;20233;-88
2022/06/13 10:39:13;;;;;;;11.60;10.60;;;;;;;;;;6211064;23;20212;-88
2022/06/13 10:41:53;;;;;;;9.27;8.45;;;;;;;;;;6210162;23;20734;-88
2022/06/13 10:44:24;;;;;;;8.45;7.55;;;;;;;;;;6210286;23;20169;-88
2022/06/13 10:55:36;;;;;;;6.63;5.32;;;;;;;;;;6270679;22;20195;-88
2022/06/13 11:01:10;;;;;;;6.47;5.65;;;;;;;;;;6248348;22;20179;-89
2022/06/13 11:04:02;;;;;;;5.80;5.20;;;;;;;;;;6275922;22;20233;-87
2022/06/13 11:12:59;;;;;;;5.20;4.70;;;;;;;;;;6237048;23;20188;-90
2022/06/13 11:24:47;;;;;;;3.70;3.40;;;;;;;;;;6245277;23;20160;-84
2022/06/13 11:27:40;;;;;;;3.10;2.80;;;;;;;;;;6243911;23;20177;-88
2022/06/13 11:30:27;;;;;;;4.10;2.83;;;;;;;;;;6244557;23;20203;-86
2022/06/13 11:33:03;;;;;;;3.60;2.85;;;;;;;;;;6245198;23;20699;-86
2022/06/13 11:35:36;;;;;;;2.92;2.58;;;;;;;;;;6244070;23;20238;-84
2022/06/13 11:38:26;;;;;;;3.90;2.60;;;;;;;;;;6243958;23;20173;-89
2022/06/13 11:41:03;;;;;;;2.90;2.45;;;;;;;;;;6245123;23;20211;-85
2022/06/13 11:43:43;;;;;;;3.15;2.60;;;;;;;;;;6244748;23;20192;-84
2022/06/13 11:46:12;;;;;;;4.22;2.42;;;;;;;;;;6257588;22;20171;-84
2022/06/13 11:48:53;;;;;;;3.22;2.50;;;;;;;;;;6279676;22;20179;-84
2022/06/13 11:51:24;;;;;;;5.13;2.72;;;;;;;;;;6277796;22;20174;-84
2022/06/13 11:53:58;;;;;;;3.45;2.53;;;;;;;;;;6278963;22;20167;-84
2022/06/13 11:56:30;;;;;;;2.92;2.47;;;;;;;;;;6279036;22;20211;-84
2022/06/13 11:59:02;;;;;;;3.10;2.70;;;;;;;;;;6278437;22;20225;-85
2022/06/13 12:04:57;;;;;;;;;;;;;;;;;;;;;
2022/06/13 12:07:32;;;;;;;2.97;2.45;;;;;;;;;;6243356;23;20168;-90
2022/06/13 12:19:16;;;;;;;2.85;2.17;;;;;;;;;;6243711;23;20140;-88
2022/06/13 12:21:50;;;;;;;2.80;2.10;;;;;;;;;;6243327;23;20188;-88
2022/06/13 12:24:21;;;;;;;2.40;2.20;;;;;;;;;;6243366;23;20173;-89
2022/06/13 12:26:52;;;;;;;3.45;2.22;;;;;;;;;;6242658;23;20164;-88
2022/06/13 12:29:34;;;;;;;2.05;1.88;;;;;;;;;;6243377;23;20172;-87
2022/06/13 12:32:07;;;;;;;2.20;2.00;;;;;;;;;;6243429;23;20542;-89
2022/06/13 12:38:03;;;;;;;2.40;2.20;;;;;;;;;;6095834;23;20184;-88
2022/06/13 12:40:44;;;;;;;2.42;2.20;;;;;;;;;;6246917;22;20173;-88
2022/06/13 12:43:22;;;;;;;3.33;2.10;;;;;;;;;;6276058;22;20663;-89
2022/06/13 12:46:04;;;;;;;4.07;2.00;;;;;;;;;;6276638;22;20167;-89
2022/06/13 12:48:41;;;;;;;3.30;1.80;;;;;;;;;;6276828;22;20160;-88
2022/06/13 12:54:41;;;;;;;3.47;2.35;;;;;;;;;;6255816;22;20216;-90
2022/06/13 12:57:22;;;;;;;2.97;2.20;;;;;;;;;;6276180;22;20203;-91
2022/06/13 13:00:03;;;;;;;3.95;2.10;;;;;;;;;;6276241;22;20172;-91
2022/06/13 13:02:36;;;;;;;2.45;1.88;;;;;;;;;;6278882;22;20226;-88
2022/06/13 13:05:16;;;;;;;2.75;1.85;;;;;;;;;;6275678;22;20164;-91
2022/06/13 13:07:49;;;;;;;2.10;1.90;;;;;;;;;;6273651;22;20164;-90
2022/06/13 13:10:34;;;;;;;1.98;1.77;;;;;;;;;;6274327;22;20172;-91
2022/06/13 13:13:09;;;;;;;2.05;1.80;;;;;;;;;;6274510;22;20230;-89
2022/06/13 13:15:42;;;;;;;2.65;2.20;;;;;;;;;;6276230;22;20215;-88
2022/06/13 13:18:13;;;;;;;2.40;2.10;;;;;;;;;;6275596;22;20168;-85
2022/06/13 13:20:47;;;;;;;2.83;2.20;;;;;;;;;;6276310;22;20194;-87
2022/06/13 13:23:19;;;;;;;3.10;2.17;;;;;;;;;;6274782;22;20245;-86
2022/06/13 13:25:50;;;;;;;2.10;1.90;;;;;;;;;;6276256;22;20176;-87
2022/06/13 13:28:24;;;;;;;2.78;2.00;;;;;;;;;;6275617;22;20187;-87
2022/06/13 13:30:54;;;;;;;2.80;1.90;;;;;;;;;;6275807;22;20164;-88
2022/06/13 13:33:27;;;;;;;4.20;1.90;;;;;;;;;;6276053;22;20222;-85
2022/06/13 13:35:57;;;;;;;3.10;1.85;;;;;;;;;;6276390;22;20237;-86
2022/06/13 13:38:28;;;;;;;2.50;1.98;;;;;;;;;;6276134;22;20179;-87
2022/06/13 13:40:59;;;;;;;2.42;1.80;;;;;;;;;;6276185;22;20180;-87
2022/06/13 13:43:30;;;;;;;3.53;2.15;;;;;;;;;;6276091;22;20249;-88
2022/06/13 13:46:08;;;;;;;3.17;1.92;;;;;;;;;;6275684;22;20175;-88
2022/06/13 13:48:38;;;;;;;4.35;2.00;;;;;;;;;;6275467;22;20183;-85
2022/06/13 13:51:10;;;;;;;3.83;1.88;;;;;;;;;;6274946;22;20203;-88
2022/06/13 13:53:41;;;;;;;2.97;1.92;;;;;;;;;;6275383;22;20202;-88
2022/06/13 13:56:14;;;;;;;2.25;1.67;;;;;;;;;;6274996;22;20218;-87
2022/06/13 13:58:46;;;;;;;2.38;1.95;;;;;;;;;;6275570;22;20221;-88
2022/06/13 14:01:24;;;;;;;2.78;1.90;;;;;;;;;;6275651;22;20160;-87
2022/06/13 14:04:01;;;;;;;2.35;1.70;;;;;;;;;;6275161;22;20196;-88
2022/06/13 14:06:31;;;;;;;2.00;1.80;;;;;;;;;;6274813;22;20168;-88
2022/06/13 14:09:02;;;;;;;2.55;1.73;;;;;;;;;;6275541;22;20175;-89
2022/06/13 14:11:33;;;;;;;3.85;1.83;;;;;;;;;;6275564;22;20167;-88
2022/06/13 14:14:02;;;;;;;2.30;1.60;;;;;;;;;;6275338;22;20267;-87
2022/06/13 14:16:38;;;;;;;3.05;2.00;;;;;;;;;;6274896;22;20192;-87
2022/06/13 14:19:20;;;;;;;2.28;1.90;;;;;;;;;;6274800;22;20198;-88
2022/06/13 14:22:01;;;;;;;2.88;1.90;;;;;;;;;;6275119;22;20246;-87
2022/06/13 14:24:31;;;;;;;1.95;1.75;;;;;;;;;;6275246;22;20618;-87
2022/06/13 14:27:03;;;;;;;2.05;1.60;;;;;;;;;;6274985;22;20168;-88
2022/06/13 14:29:35;;;;;;;1.95;1.75;;;;;;;;;;6275530;22;20175;-86
2022/06/13 14:32:03;;;;;;;1.80;1.60;;;;;;;;;;6274658;22;20543;-86
2022/06/13 14:37:30;;;;;;;2.35;1.55;;;;;;;;;;6273967;22;20611;-87
2022/06/13 14:39:59;;;;;;;2.45;1.65;;;;;;;;;;6274252;22;20206;-88
2022/06/13 14:42:41;;;;;;;1.60;1.50;;;;;;;;;;6274805;22;20274;-87
2022/06/13 14:45:11;;;;;;;3.35;1.60;;;;;;;;;;6273565;22;20227;-86
2022/06/13 14:47:45;;;;;;;2.45;1.70;;;;;;;;;;6274976;22;20246;-88
2022/06/13 14:50:15;;;;;;;2.85;1.60;;;;;;;;;;6274810;22;20238;-86
2022/06/13 14:52:42;;;;;;;2.10;1.80;;;;;;;;;;6274764;22;20191;-86
2022/06/13 14:55:19;;;;;;;1.80;1.50;;;;;;;;;;6274494;22;20191;-86
2022/06/13 14:58:04;;;;;;;2.03;1.52;;;;;;;;;;6274604;22;20193;-87
2022/06/13 15:00:35;;;;;;;1.83;1.73;;;;;;;;;;6274739;22;20168;-84
2022/06/13 15:03:23;;;;;;;1.95;1.50;;;;;;;;;;6274843;22;20200;-87
2022/06/13 15:05:55;;;;;;;2.47;1.60;;;;;;;;;;6271859;22;20233;-87
2022/06/13 15:08:27;;;;;;;2.03;1.52;;;;;;;;;;6274975;22;20198;-84
2022/06/13 15:10:57;;;;;;;1.98;1.60;;;;;;;;;;6274535;22;20164;-86
2022/06/13 15:13:26;;;;;;;2.10;1.60;;;;;;;;;;6274630;22;20194;-88
2022/06/13 15:15:56;;;;;;;1.95;1.40;;;;;;;;;;6275112;22;20198;-87
2022/06/13 15:18:25;;;;;;;1.95;1.58;;;;;;;;;;6274654;22;20210;-87
2022/06/13 15:20:53;;;;;;;2.35;1.60;;;;;;;;;;6275021;22;20171;-87
2022/06/13 15:23:23;;;;;;;1.70;1.60;;;;;;;;;;6276606;22;20195;-85
2022/06/13 15:25:51;;;;;;;1.50;1.40;;;;;;;;;;6288726;22;20168;-86
2022/06/13 15:28:19;;;;;;;2.22;1.70;;;;;;;;;;6277960;22;20632;-89
2022/06/13 15:30:47;;;;;;;2.58;1.70;;;;;;;;;;6273691;22;20196;-86
2022/06/13 15:33:20;;;;;;;4.28;1.88;;;;;;;;;;6275372;22;20196;-84
2022/06/13 15:35:49;;;;;;;2.40;1.50;;;;;;;;;;6275687;22;20214;-85
2022/06/13 15:38:18;;;;;;;2.53;1.70;;;;;;;;;;6274087;22;20225;-87
2022/06/13 15:40:55;;;;;;;2.67;1.67;;;;;;;;;;6274931;22;20203;-86
2022/06/13 15:43:26;;;;;;;2.65;1.75;;;;;;;;;;6274218;22;20215;-86
2022/06/13 15:45:55;;;;;;;2.17;1.60;;;;;;;;;;6276528;22;20194;-86
2022/06/13 15:48:24;;;;;;;2.10;1.70;;;;;;;;;;6277253;22;20179;-84
2022/06/13 15:51:16;;;;;;;2.05;1.60;;;;;;;;;;6276464;22;20172;-88
2022/06/13 15:53:48;;;;;;;2.03;1.70;;;;;;;;;;6278970;22;20282;-88
2022/06/13 15:56:32;;;;;;;2.05;1.67;;;;;;;;;;6277452;22;20259;-85
2022/06/13 15:59:04;;;;;;;2.78;1.63;;;;;;;;;;6276487;22;20168;-83
2022/06/13 16:01:33;;;;;;;1.77;1.55;;;;;;;;;;6279138;22;20179;-84
2022/06/13 16:04:16;;;;;;;1.52;1.42;;;;;;;;;;6277488;22;20200;-84
2022/06/13 16:10:17;;;;;;;2.58;1.60;;;;;;;;;;6265842;22;20175;-84
2022/06/13 16:12:52;;;;;;;3.97;1.77;;;;;;;;;;6277042;22;20237;-85
2022/06/13 16:15:25;;;;;;;2.45;1.70;;;;;;;;;;6276972;22;20182;-85
2022/06/13 16:17:59;;;;;;;2.17;1.52;;;;;;;;;;6276154;22;20188;-86
2022/06/13 16:20:37;;;;;;;3.03;1.80;;;;;;;;;;6277586;22;20160;-85
2022/06/13 16:23:09;;;;;;;2.30;1.92;;;;;;;;;;6277096;22;20262;-85
2022/06/13 16:25:38;;;;;;;3.33;2.67;;;;;;;;;;6276010;22;20172;-85
2022/06/13 16:28:12;;;;;;;3.13;2.55;;;;;;;;;;6276763;22;20176;-85
2022/06/13 16:30:42;;;;;;;5.40;2.70;;;;;;;;;;6276769;22;20170;-84
2022/06/13 16:33:14;;;;;;;4.10;2.60;;;;;;;;;;6276647;22;20191;-84
2022/06/13 16:35:49;;;;;;;2.75;2.47;;;;;;;;;;6278616;22;20168;-87
2022/06/13 16:38:20;;;;;;;3.60;2.70;;;;;;;;;;6275757;22;20198;-85
2022/06/13 16:40:53;;;;;;;3.10;2.28;;;;;;;;;;6275741;22;20183;-85
2022/06/13 16:43:30;;;;;;;2.83;2.47;;;;;;;;;;6275959;22;20192;-86
2022/06/13 16:46:12;;;;;;;3.67;2.50;;;;;;;;;;6276137;22;20198;-89
2022/06/13 16:48:45;;;;;;;2.05;1.83;;;;;;;;;;6274967;22;20195;-85
2022/06/13 16:51:16;;;;;;;3.72;2.22;;;;;;;;;;6275712;22;20198;-85
2022/06/13 16:53:49;;;;;;;3.55;2.38;;;;;;;;;;6275272;22;20191;-85
2022/06/13 16:56:17;;;;;;;3.55;2.10;;;;;;;;;;6275402;22;20547;-84
2022/06/13 16:58:48;;;;;;;3.42;1.85;;;;;;;;;;6276221;22;20246;-85
2022/06/13 17:01:16;;;;;;;3.35;2.05;;;;;;;;;;6275047;22;20179;-85
2022/06/13 17:04:00;;;;;;;2.65;2.15;;;;;;;;;;6276094;22;20200;-83
2022/06/13 17:06:33;;;;;;;2.53;1.90;;;;;;;;;;6275101;22;20187;-85
2022/06/13 17:09:02;;;;;;;3.55;1.92;;;;;;;;;;6275548;22;20168;-85
2022/06/13 17:11:57;;;;;;;2.97;1.98;;;;;;;;;;6275378;22;20179;-85
2022/06/13 17:14:42;;;;;;;2.75;1.77;;;;;;;;;;6275773;22;20218;-85
2022/06/13 17:17:14;;;;;;;2.22;1.80;;;;;;;;;;6276655;22;20671;-84
2022/06/13 17:19:45;;;;;;;2.50;1.77;;;;;;;;;;6276097;22;20175;-85
2022/06/13 17:22:20;;;;;;;2.72;1.70;;;;;;;;;;6276342;22;20192;-86
2022/06/13 17:24:49;;;;;;;3.15;1.90;;;;;;;;;;6276205;22;20172;-86
2022/06/13 17:32:51;;;;;;;2.03;1.85;;;;;;;;;;6277678;22;20194;-85
2022/06/13 17:35:18;;;;;;;2.25;1.80;;;;;;;;;;6277011;22;20172;-86
2022/06/13 17:37:48;;;;;;;2.33;1.70;;;;;;;;;;6273947;22;20196;-85
2022/06/13 17:40:15;;;;;;;3.55;1.90;;;;;;;;;;6274452;22;20171;-83
2022/06/13 17:42:44;;;;;;;1.85;1.70;;;;;;;;;;6275209;22;20191;-83
2022/06/13 17:45:13;;;;;;;2.58;1.70;;;;;;;;;;6276482;22;20203;-85
2022/06/13 17:47:41;;;;;;;3.20;2.03;;;;;;;;;;6275259;22;20167;-86
2022/06/13 17:50:11;;;;;;;1.98;1.58;;;;;;;;;;6277322;22;20172;-85
2022/06/13 17:52:46;;;;;;;2.00;1.70;;;;;;;;;;6276268;22;20195;-86
2022/06/13 17:55:18;;;;;;;3.78;2.20;;;;;;;;;;6274622;22;20218;-86
2022/06/13 17:57:48;;;;;;;3.47;2.20;;;;;;;;;;6275544;22;20188;-85
2022/06/13 18:00:17;;;;;;;4.63;2.30;;;;;;;;;;6275645;22;20199;-88
2022/06/13 18:02:45;;;;;;;3.10;2.20;;;;;;;;;;6274365;22;20253;-90
2022/06/13 18:05:17;;;;;;;2.17;1.95;;;;;;;;;;6274251;22;20182;-88
2022/06/13 18:07:47;;;;;;;3.30;1.80;;;;;;;;;;6274407;22;20172;-87
2022/06/13 18:10:16;;;;;;;3.28;2.30;;;;;;;;;;6274900;22;20523;-88
2022/06/13 18:12:43;;;;;;;5.18;3.13;;;;;;;;;;6274550;22;20191;-87
2022/06/13 18:15:11;;;;;;;6.13;4.97;;;;;;;;;;6274891;22;20221;-87
2022/06/13 18:17:42;;;;;;;5.80;5.10;;;;;;;;;;6274702;22;20219;-85
2022/06/13 18:20:16;;;;;;;3.90;3.60;;;;;;;;;;6275199;22;20199;-88
2022/06/13 18:22:58;;;;;;;4.38;3.40;;;;;;;;;;6274169;22;20254;-88
2022/06/13 18:25:28;;;;;;;4.60;2.95;;;;;;;;;;6275177;22;20164;-88
2022/06/13 18:28:00;;;;;;;38.13;15.70;;;;;;;;;;6274903;22;20516;-90
2022/06/13 18:30:27;;;;;;;102.30;40.72;;;;;;;;;;6275037;22;20218;-90
2022/06/13 18:32:56;;;;;;;125.00;51.42;;;;;;;;;;6274918;22;20191;-88
2022/06/13 18:35:25;;;;;;;168.50;65.93;;;;;;;;;;6276626;22;20172;-89
2022/06/13 18:37:55;;;;;;;170.23;72.32;;;;;;;;;;6277002;22;20191;-90
2022/06/13 18:40:24;;;;;;;148.63;66.78;;;;;;;;;;6275626;22;20199;-87
2022/06/13 18:42:52;;;;;;;112.30;53.03;;;;;;;;;;6274566;22;20762;-87
2022/06/13 18:45:20;;;;;;;83.95;40.78;;;;;;;;;;6274410;22;20172;-87
2022/06/13 18:47:56;;;;;;;57.75;30.23;;;;;;;;;;6273773;22;20741;-87